Time;durP1;ratioP1;P1;durP2;ratioP2;P2;SDS_P1;SDS_P2;PMS_P1;PMS_P2;Temp;Humidity;BMP_temperature;BMP_pressure;BME280_temperature;BME280_humidity;BME280_pressure;Samples;Min_cycle;Max_cycle;Signal;HPM_P1;HPM_P2
2022/11/25 00:01:42;;;;;;;12.87;6.00;;;;;;;4.00;97.19;100397.00;5013765;28;20232;-63
2022/11/25 00:04:09;;;;;;;15.43;6.50;;;;;;;4.12;97.21;100388.75;5009810;28;20200;-63
2022/11/25 00:06:35;;;;;;;15.47;6.17;;;;;;;4.22;97.52;100380.41;5010980;28;20640;-64
2022/11/25 00:09:19;;;;;;;20.90;7.17;;;;;;;4.30;97.30;100387.72;5006216;28;20197;-62
2022/11/25 00:11:46;;;;;;;17.10;6.70;;;;;;;4.25;97.31;100354.31;5005825;28;20544;-63
2022/11/25 00:14:14;;;;;;;18.07;6.60;;;;;;;4.41;97.14;100375.06;4986210;28;20744;-65
2022/11/25 00:16:40;;;;;;;17.77;6.87;;;;;;;4.40;96.75;100363.69;5003116;28;20328;-63
2022/11/25 00:19:13;;;;;;;15.37;6.43;;;;;;;4.44;96.55;100372.53;5013708;28;20200;-64
2022/11/25 00:21:39;;;;;;;18.77;6.23;;;;;;;4.49;96.31;100377.97;5010605;28;20283;-63
2022/11/25 00:24:06;;;;;;;17.67;6.67;;;;;;;4.48;96.49;100371.81;5011179;28;20227;-63
2022/11/25 00:26:34;;;;;;;15.77;6.53;;;;;;;4.58;96.56;100384.44;5008694;28;20307;-63
2022/11/25 00:29:04;;;;;;;18.10;6.77;;;;;;;4.66;96.40;100380.34;5013242;28;20703;-64
2022/11/25 00:31:33;;;;;;;13.70;6.20;;;;;;;4.80;95.75;100375.59;5010791;28;20688;-63
2022/11/25 00:34:00;;;;;;;16.27;6.07;;;;;;;4.86;95.73;100373.22;5011545;28;20193;-63
2022/11/25 00:36:27;;;;;;;23.37;6.80;;;;;;;4.86;95.89;100373.22;4993163;28;20243;-63
2022/11/25 00:38:55;;;;;;;15.13;6.70;;;;;;;4.92;95.44;100373.44;5011961;28;20258;-64
2022/11/25 00:46:54;;;;;;;16.70;6.83;;;;;;;5.09;94.64;100376.63;5007814;28;20283;-63
2022/11/25 00:49:21;;;;;;;13.67;6.07;;;;;;;5.20;93.47;100371.75;5010667;28;20197;-63
2022/11/25 00:51:47;;;;;;;16.57;6.40;;;;;;;5.14;94.18;100355.81;5009888;28;20264;-63
2022/11/25 00:54:14;;;;;;;16.37;6.43;;;;;;;5.27;92.83;100363.28;5013440;28;20289;-64
2022/11/25 00:56:40;;;;;;;17.30;6.00;;;;;;;5.24;93.93;100368.44;5004660;28;20766;-63
2022/11/25 00:59:07;;;;;;;17.43;6.40;;;;;;;5.23;94.28;100366.63;5012653;28;20216;-64
2022/11/25 01:01:35;;;;;;;12.70;5.77;;;;;;;5.24;94.32;100371.94;5010428;28;20287;-63
2022/11/25 01:04:01;;;;;;;14.67;5.70;;;;;;;5.23;94.08;100364.91;5009422;28;20253;-63
2022/11/25 01:06:28;;;;;;;12.83;5.57;;;;;;;5.28;93.51;100367.69;5012740;28;20223;-63
2022/11/25 01:08:54;;;;;;;16.77;6.20;;;;;;;5.29;93.11;100373.00;5011176;28;20294;-63
2022/11/25 01:11:22;;;;;;;14.33;5.77;;;;;;;5.27;93.23;100364.16;5006026;28;20212;-63
2022/11/25 01:13:49;;;;;;;12.37;5.20;;;;;;;5.34;92.67;100363.53;4993861;28;20292;-63
2022/11/25 01:16:19;;;;;;;11.83;5.60;;;;;;;5.37;92.57;100365.38;5007456;28;20194;-63
2022/11/25 01:18:46;;;;;;;18.57;6.07;;;;;;;5.49;91.16;100365.75;5009781;28;20206;-65
2022/11/25 01:21:22;;;;;;;14.57;5.63;;;;;;;5.49;91.23;100373.66;5011970;28;20313;-63
2022/11/25 01:23:49;;;;;;;12.70;5.10;;;;;;;5.57;90.73;100374.78;5009658;28;20206;-64
2022/11/25 01:26:18;;;;;;;14.47;5.60;;;;;;;5.66;89.25;100390.88;5008665;28;20243;-63
2022/11/25 01:28:45;;;;;;;18.73;5.40;;;;;;;5.62;89.31;100373.22;5008228;28;20225;-64
2022/11/25 01:31:15;;;;;;;13.57;5.87;;;;;;;5.74;88.73;100380.59;5010460;28;20207;-63
2022/11/25 01:33:43;;;;;;;18.67;5.53;;;;;;;5.70;88.95;100385.72;5012890;28;20206;-63
2022/11/25 01:36:13;;;;;;;14.57;5.70;;;;;;;5.70;88.65;100380.47;5007567;28;20286;-63
2022/11/25 01:38:40;;;;;;;12.27;5.73;;;;;;;5.78;88.12;100378.97;5011862;28;20256;-63
2022/11/25 01:41:10;;;;;;;16.63;6.20;;;;;;;5.74;88.07;100377.97;5011743;28;20263;-64
2022/11/25 01:43:37;;;;;;;13.37;5.53;;;;;;;5.66;87.47;100340.97;5010106;28;20438;-63
2022/11/25 01:46:19;;;;;;;16.03;5.80;;;;;;;5.83;87.75;100378.28;5006804;28;20877;-64
2022/11/25 01:48:48;;;;;;;15.30;5.27;;;;;;;5.80;87.70;100369.41;5009922;28;20198;-63
2022/11/25 01:51:20;;;;;;;11.63;5.57;;;;;;;5.76;87.94;100370.16;5012516;28;20645;-63
2022/11/25 01:53:47;;;;;;;19.17;6.07;;;;;;;5.72;87.97;100371.78;4991931;28;20555;-63
2022/11/25 01:56:14;;;;;;;11.93;5.53;;;;;;;5.68;88.19;100376.91;5006642;28;20506;-63
2022/11/25 01:58:42;;;;;;;13.53;6.37;;;;;;;5.60;88.79;100360.84;5007112;28;20280;-63
2022/11/25 02:01:09;;;;;;;12.47;5.80;;;;;;;5.68;87.67;100364.66;5006343;28;20285;-63
2022/11/25 02:03:45;;;;;;;13.10;5.60;;;;;;;5.54;87.41;100368.53;5011662;28;20659;-66
2022/11/25 02:06:17;;;;;;;16.03;5.77;;;;;;;5.30;87.89;100364.28;5005911;28;20219;-66
2022/11/25 02:08:48;;;;;;;17.13;6.10;;;;;;;5.21;88.46;100358.72;5007991;28;20207;-64
2022/11/25 02:11:15;;;;;;;14.37;6.63;;;;;;;5.11;88.93;100361.84;5008438;28;20308;-64
2022/11/25 02:13:44;;;;;;;12.77;5.67;;;;;;;4.93;89.41;100356.84;5008462;28;20207;-64
2022/11/25 02:16:11;;;;;;;14.63;5.97;;;;;;;4.87;90.19;100354.03;5002593;28;20197;-64
2022/11/25 02:18:37;;;;;;;12.17;5.67;;;;;;;4.90;90.15;100356.75;5008135;28;20223;-64
2022/11/25 02:21:04;;;;;;;17.47;6.37;;;;;;;4.96;90.50;100354.34;5008696;28;20734;-64
2022/11/25 02:23:53;;;;;;;14.70;5.70;;;;;;;4.85;90.72;100354.81;4994118;28;20240;-64
2022/11/25 02:26:20;;;;;;;12.33;6.30;;;;;;;4.63;90.83;100351.41;4997809;28;20302;-65
2022/11/25 02:28:47;;;;;;;14.00;6.73;;;;;;;4.57;90.81;100372.16;4998208;28;20203;-65
2022/11/25 02:31:21;;;;;;;13.80;6.33;;;;;;;4.47;91.20;100362.16;5005798;28;20300;-65
2022/11/25 02:33:48;;;;;;;16.50;6.40;;;;;;;4.44;91.75;100363.78;5000954;28;20198;-65
2022/11/25 02:36:19;;;;;;;17.03;6.30;;;;;;;4.40;91.86;100358.44;5001238;28;20187;-65
2022/11/25 02:38:52;;;;;;;21.10;6.97;;;;;;;4.34;91.79;100360.78;5000335;28;20611;-65
2022/11/25 02:41:23;;;;;;;13.83;6.20;;;;;;;4.27;91.97;100360.50;5003567;28;20303;-64
2022/11/25 02:43:50;;;;;;;18.50;6.90;;;;;;;4.20;92.57;100361.13;5002419;28;20283;-64
2022/11/25 02:46:18;;;;;;;14.80;6.60;;;;;;;4.12;92.53;100358.22;5005447;28;20216;-64
2022/11/25 02:48:49;;;;;;;15.73;7.43;;;;;;;4.12;92.96;100359.94;5004680;28;20668;-64
2022/11/25 02:51:37;;;;;;;17.13;8.27;;;;;;;4.19;93.24;100360.22;5006741;28;20196;-65
2022/11/25 02:54:03;;;;;;;22.47;9.10;;;;;;;4.26;93.23;100362.25;5006842;28;20209;-64
2022/11/25 02:56:33;;;;;;;19.60;8.90;;;;;;;4.32;93.31;100364.19;4995828;28;20217;-64
2022/11/25 02:59:00;;;;;;;21.03;9.40;;;;;;;4.28;93.31;100360.56;5006856;28;20196;-64
2022/11/25 03:01:29;;;;;;;21.53;8.70;;;;;;;4.40;93.76;100363.69;5011771;28;20612;-63
2022/11/25 03:03:56;;;;;;;20.83;8.50;;;;;;;4.53;92.72;100357.16;5001402;28;20204;-64
2022/11/25 03:06:22;;;;;;;20.13;8.33;;;;;;;4.46;92.90;100357.75;5003110;28;20311;-64
2022/11/25 03:08:49;;;;;;;18.23;8.43;;;;;;;4.45;92.99;100363.84;5004735;28;20204;-63
2022/11/25 03:11:15;;;;;;;14.97;8.63;;;;;;;4.47;92.88;100363.91;5009884;28;20223;-63
2022/11/25 03:13:42;;;;;;;26.33;8.30;;;;;;;4.54;92.55;100364.19;5000665;28;20294;-65
2022/11/25 03:16:08;;;;;;;21.40;8.70;;;;;;;4.57;92.97;100359.03;5011402;28;20224;-65
2022/11/25 03:18:34;;;;;;;17.37;8.20;;;;;;;4.57;92.69;100359.03;5009936;28;20261;-64
2022/11/25 03:21:01;;;;;;;17.23;8.00;;;;;;;4.58;92.37;100352.97;5004223;28;20299;-64
2022/11/25 03:23:28;;;;;;;17.30;7.60;;;;;;;4.68;92.20;100362.03;5004592;28;20744;-65
2022/11/25 03:25:54;;;;;;;20.40;8.07;;;;;;;4.77;91.71;100350.97;5006129;28;20308;-64
2022/11/25 03:28:20;;;;;;;18.23;7.77;;;;;;;4.71;91.50;100357.81;5007328;28;20311;-64
2022/11/25 03:30:47;;;;;;;23.17;7.60;;;;;;;4.70;91.44;100360.38;5009297;28;20219;-65
2022/11/25 03:33:13;;;;;;;17.37;7.93;;;;;;;4.82;91.02;100352.06;5012702;28;20226;-64
2022/11/25 03:35:40;;;;;;;14.67;7.63;;;;;;;4.83;90.39;100359.09;4992364;28;20308;-63
2022/11/25 03:38:06;;;;;;;14.57;7.57;;;;;;;4.78;90.85;100356.28;5008106;28;20673;-65
2022/11/25 03:40:32;;;;;;;14.73;7.70;;;;;;;4.85;90.51;100362.66;5003677;28;20193;-65
2022/11/25 03:42:59;;;;;;;16.77;7.47;;;;;;;4.89;90.43;100364.56;5008596;28;20196;-64
2022/11/25 03:45:25;;;;;;;22.03;7.80;;;;;;;4.87;90.16;100356.63;5003217;28;20221;-64
2022/11/25 03:47:51;;;;;;;17.83;7.17;;;;;;;4.78;90.60;100356.28;5002341;28;20750;-64
2022/11/25 03:50:18;;;;;;;13.97;7.10;;;;;;;4.85;90.44;100354.81;5005572;28;20686;-63
2022/11/25 03:52:44;;;;;;;19.47;7.37;;;;;;;4.83;90.53;100361.72;5009683;28;20203;-63
2022/11/25 03:55:11;;;;;;;14.77;7.47;;;;;;;4.77;90.71;100362.38;5005338;28;20192;-64
2022/11/25 03:57:39;;;;;;;16.00;7.37;;;;;;;4.75;90.88;100366.66;5005906;28;20251;-64
2022/11/25 04:00:06;;;;;;;21.57;8.63;;;;;;;4.82;90.81;100360.84;5003523;28;20204;-64
2022/11/25 04:02:32;;;;;;;17.50;8.13;;;;;;;4.80;90.60;100358.97;5009086;28;20196;-64
2022/11/25 04:04:59;;;;;;;21.73;8.47;;;;;;;4.88;89.82;100360.16;4999216;28;20222;-65
2022/11/25 04:07:25;;;;;;;19.00;8.27;;;;;;;4.99;89.46;100367.56;5001832;28;20753;-65
2022/11/25 04:09:52;;;;;;;18.77;7.87;;;;;;;4.95;89.40;100363.03;5009852;28;20200;-64
2022/11/25 04:15:03;;;;;;;17.87;7.37;;;;;;;4.91;89.83;100386.50;5002715;28;20283;-63
2022/11/25 04:17:29;;;;;;;23.33;7.87;;;;;;;4.85;90.28;100379.31;5010843;28;20248;-64
2022/11/25 04:19:56;;;;;;;21.37;8.10;;;;;;;4.92;90.09;100369.91;5006524;28;20293;-64
2022/11/25 04:22:22;;;;;;;24.43;7.80;;;;;;;5.03;89.30;100364.19;5004997;28;20201;-64
2022/11/25 04:24:49;;;;;;;15.97;7.10;;;;;;;5.08;89.17;100374.84;5016824;28;20375;-64
2022/11/25 04:27:15;;;;;;;29.00;8.30;;;;;;;5.05;89.28;100369.50;5003330;28;20280;-64
2022/11/25 04:29:41;;;;;;;27.13;8.20;;;;;;;5.06;89.29;100368.66;4993042;28;20298;-64
2022/11/25 04:32:08;;;;;;;16.10;7.83;;;;;;;5.10;89.02;100365.31;5006670;28;20669;-64
2022/11/25 04:34:34;;;;;;;26.83;8.70;;;;;;;5.13;89.00;100359.25;5006547;28;20681;-65
2022/11/25 04:37:01;;;;;;;17.47;8.20;;;;;;;5.10;88.38;100353.91;5010915;23;20242;-65
2022/11/25 04:39:27;;;;;;;17.23;8.17;;;;;;;5.08;88.93;100359.09;4969429;28;20260;-65
2022/11/25 04:42:30;;;;;;;13.90;7.97;;;;;;;5.11;89.27;100360.94;4962337;28;20206;-65
2022/11/25 04:44:40;;;;;;;15.50;7.63;;;;;;;5.05;89.03;100359.00;4967347;28;20290;-65
2022/11/25 04:47:06;;;;;;;15.93;7.33;;;;;;;5.03;89.10;100352.81;4963651;28;20665;-65
2022/11/25 04:49:32;;;;;;;17.63;7.33;;;;;;;5.02;89.49;100357.16;4984120;28;20594;-65
2022/11/25 04:51:59;;;;;;;19.37;7.57;;;;;;;5.09;88.96;100350.41;4989683;28;20755;-65
2022/11/25 04:54:25;;;;;;;18.27;7.43;;;;;;;5.07;89.18;100348.56;4990001;28;20200;-65
2022/11/25 04:56:51;;;;;;;16.37;7.77;;;;;;;5.08;88.93;100355.59;4983918;28;20295;-65
2022/11/25 05:02:03;;;;;;;24.60;8.23;;;;;;;5.06;89.53;100352.91;4982263;28;20687;-65
2022/11/25 05:04:30;;;;;;;17.97;6.87;;;;;;;5.12;89.26;100346.97;4971870;28;20217;-65
2022/11/25 05:06:56;;;;;;;15.37;7.77;;;;;;;5.23;88.72;100333.41;4983934;28;20567;-65
2022/11/25 05:09:22;;;;;;;14.83;7.27;;;;;;;5.24;88.52;100347.41;4984278;28;20304;-65
2022/11/25 05:11:49;;;;;;;13.57;7.40;;;;;;;5.22;88.73;100350.00;4984142;28;20654;-65
2022/11/25 05:14:15;;;;;;;24.03;7.67;;;;;;;5.20;89.09;100353.38;4969933;28;20221;-65
2022/11/25 05:16:41;;;;;;;15.50;7.03;;;;;;;5.30;88.75;100345.00;4981365;28;20201;-65
2022/11/25 05:19:08;;;;;;;16.73;7.47;;;;;;;5.30;88.69;100347.63;4983393;28;20675;-65
2022/11/25 05:21:34;;;;;;;18.33;8.07;;;;;;;5.33;88.66;100353.88;4982443;28;20198;-65
2022/11/25 05:24:00;;;;;;;19.07;7.87;;;;;;;5.36;88.71;100353.06;4981297;28;20287;-65
2022/11/25 05:26:27;;;;;;;16.77;7.90;;;;;;;5.43;88.59;100354.16;4958530;28;20228;-65
2022/11/25 05:28:53;;;;;;;20.43;7.60;;;;;;;5.43;88.52;100352.44;4989681;28;20312;-65
2022/11/25 05:31:19;;;;;;;16.40;7.60;;;;;;;5.40;88.00;100349.72;4983663;28;20293;-65
2022/11/25 05:33:46;;;;;;;19.73;7.37;;;;;;;5.37;88.22;100352.22;4984969;28;20201;-65
2022/11/25 05:36:12;;;;;;;13.80;7.03;;;;;;;5.34;88.53;100363.53;4983969;28;20280;-65
2022/11/25 05:38:39;;;;;;;17.97;7.27;;;;;;;5.33;88.85;100358.22;4988269;28;20225;-65
2022/11/25 05:41:07;;;;;;;16.97;7.60;;;;;;;5.36;88.96;100358.31;4971679;28;20733;-65
2022/11/25 05:43:33;;;;;;;16.23;7.40;;;;;;;5.46;88.51;100362.16;4988888;28;20729;-65
2022/11/25 05:46:04;;;;;;;20.40;7.83;;;;;;;5.46;88.20;100357.78;4983429;28;20277;-65
2022/11/25 05:48:30;;;;;;;15.80;7.83;;;;;;;5.55;87.75;100365.97;4987128;28;20235;-65
2022/11/25 05:51:02;;;;;;;17.93;7.67;;;;;;;5.70;87.22;100360.34;4988939;28;20607;-65
2022/11/25 05:53:28;;;;;;;15.70;7.53;;;;;;;5.73;86.88;100364.78;4989256;28;20307;-65
2022/11/25 05:55:57;;;;;;;17.90;8.03;;;;;;;5.69;86.67;100362.91;4978558;28;20287;-65
2022/11/25 05:58:24;;;;;;;16.37;6.63;;;;;;;5.65;87.11;100381.22;4983059;28;20306;-65
2022/11/25 06:00:51;;;;;;;16.30;7.47;;;;;;;5.72;87.08;100381.41;4983552;28;20261;-65
2022/11/25 06:03:17;;;;;;;16.50;6.93;;;;;;;5.65;87.06;100385.56;4984745;28;20289;-65
2022/11/25 06:05:44;;;;;;;14.03;6.90;;;;;;;5.58;87.39;100383.56;4977282;28;20204;-65
2022/11/25 06:08:10;;;;;;;15.73;7.73;;;;;;;5.59;87.85;100382.72;4983241;28;20219;-65
2022/11/25 06:10:39;;;;;;;20.90;8.17;;;;;;;5.59;87.52;100377.47;4986861;28;20207;-65
2022/11/25 06:13:06;;;;;;;16.03;7.33;;;;;;;5.66;86.83;100367.22;4985823;28;20572;-65
2022/11/25 06:15:39;;;;;;;19.60;7.40;;;;;;;5.61;87.41;100375.81;4977484;28;20218;-65
2022/11/25 06:18:06;;;;;;;14.33;7.50;;;;;;;5.66;87.28;100376.84;4982872;28;20303;-65
2022/11/25 06:20:32;;;;;;;16.10;7.10;;;;;;;5.57;87.59;100387.03;4979068;28;20203;-66
2022/11/25 06:22:59;;;;;;;15.87;7.33;;;;;;;5.64;87.90;100394.28;4983415;28;20199;-66
2022/11/25 06:25:25;;;;;;;15.43;7.40;;;;;;;5.63;87.86;100389.88;4985166;28;20624;-66
2022/11/25 06:27:52;;;;;;;14.13;7.23;;;;;;;5.71;87.60;100405.88;4984847;28;20227;-66
2022/11/25 06:30:38;;;;;;;20.13;7.97;;;;;;;5.66;87.93;100411.88;4975664;28;20610;-66
2022/11/25 06:33:05;;;;;;;12.37;7.27;;;;;;;5.56;88.33;100412.41;4983650;28;20202;-65
2022/11/25 06:35:31;;;;;;;17.03;6.80;;;;;;;5.54;88.69;100405.31;4983182;28;20207;-64
2022/11/25 06:37:58;;;;;;;13.80;7.53;;;;;;;5.62;88.33;100402.13;4984052;28;20229;-64
2022/11/25 06:40:25;;;;;;;17.50;8.00;;;;;;;5.51;88.80;100419.22;4984571;28;20756;-66
2022/11/25 06:42:51;;;;;;;14.50;7.33;;;;;;;5.48;88.98;100421.75;4982920;28;20193;-65
2022/11/25 06:45:17;;;;;;;22.43;9.93;;;;;;;5.46;89.41;100415.56;4982251;28;20625;-65
2022/11/25 06:47:44;;;;;;;18.13;7.67;;;;;;;5.55;89.26;100422.84;4983506;28;20263;-65
2022/11/25 06:50:10;;;;;;;19.47;7.77;;;;;;;5.53;89.19;100411.41;4984489;28;20197;-65
2022/11/25 06:52:37;;;;;;;19.17;8.27;;;;;;;5.56;88.91;100422.00;4977997;28;20211;-65
2022/11/25 06:55:03;;;;;;;21.97;8.00;;;;;;;5.60;88.78;100419.56;4978284;28;20280;-65
2022/11/25 06:57:30;;;;;;;16.03;7.63;;;;;;;5.58;88.89;100420.34;4977398;28;20217;-65
2022/11/25 06:59:56;;;;;;;20.43;9.07;;;;;;;5.57;89.33;100418.53;4983887;28;20251;-65
2022/11/25 07:02:22;;;;;;;18.27;7.30;;;;;;;5.55;89.27;100422.84;4985566;28;20718;-65
2022/11/25 07:04:49;;;;;;;15.00;7.80;;;;;;;5.70;88.23;100422.50;4981988;28;20202;-65
2022/11/25 07:07:15;;;;;;;18.13;8.13;;;;;;;5.70;88.38;100428.66;4985603;28;20706;-65
2022/11/25 07:09:42;;;;;;;15.57;8.00;;;;;;;5.71;87.96;100427.81;4987521;28;20196;-65
2022/11/25 07:12:08;;;;;;;14.90;7.73;;;;;;;5.72;88.15;100431.31;4987123;28;20284;-65
2022/11/25 07:14:34;;;;;;;16.63;8.13;;;;;;;5.60;88.29;100427.44;4983578;28;20266;-65
2022/11/25 07:17:01;;;;;;;12.77;7.40;;;;;;;5.62;88.69;100432.75;4981671;28;20217;-65
2022/11/25 07:19:35;;;;;;;16.30;8.00;;;;;;;5.59;89.28;100444.03;4988352;28;20281;-65
2022/11/25 07:22:02;;;;;;;17.77;8.40;;;;;;;5.64;89.35;100441.59;4986349;28;20204;-65
2022/11/25 07:24:28;;;;;;;20.07;8.57;;;;;;;5.72;88.82;100447.97;4970188;28;20198;-65
2022/11/25 07:26:55;;;;;;;18.90;8.47;;;;;;;5.69;88.94;100454.88;4981474;28;20218;-65
2022/11/25 07:29:21;;;;;;;20.70;8.97;;;;;;;5.70;88.92;100452.28;4986335;28;20254;-65
2022/11/25 07:32:08;;;;;;;17.10;8.63;;;;;;;5.77;88.78;100450.75;4983558;28;20299;-65
2022/11/25 07:34:36;;;;;;;17.07;7.97;;;;;;;5.73;88.95;100446.25;4985606;28;21592;-65
2022/11/25 07:37:02;;;;;;;18.57;8.37;;;;;;;5.72;89.01;100444.47;4984790;28;20227;-65
2022/11/25 07:39:29;;;;;;;23.77;8.63;;;;;;;5.70;89.15;100444.41;4986678;28;20227;-65
2022/11/25 07:41:55;;;;;;;15.30;8.00;;;;;;;5.73;88.91;100449.75;4934773;28;20215;-65
2022/11/25 07:44:22;;;;;;;16.37;8.50;;;;;;;5.68;88.97;100443.47;4985284;28;20297;-65
2022/11/25 07:46:49;;;;;;;15.23;7.83;;;;;;;5.70;89.24;100448.78;4987062;28;20338;-65
2022/11/25 07:49:19;;;;;;;21.03;8.23;;;;;;;5.76;89.00;100457.75;4990107;28;20261;-65
2022/11/25 07:51:52;;;;;;;20.40;8.23;;;;;;;5.74;89.08;100455.91;4983527;28;20196;-65
2022/11/25 07:54:19;;;;;;;20.53;9.03;;;;;;;5.76;89.03;100460.38;4988482;28;20288;-65
2022/11/25 07:56:47;;;;;;;17.63;9.00;;;;;;;5.75;89.36;100461.22;4988508;28;20265;-65
2022/11/25 07:59:19;;;;;;;16.90;8.37;;;;;;;5.80;89.48;100464.88;4989426;28;20203;-65
2022/11/25 08:01:48;;;;;;;23.83;9.57;;;;;;;5.88;89.34;100462.50;4986005;28;20202;-65
2022/11/25 08:04:15;;;;;;;15.40;8.53;;;;;;;5.93;89.24;100448.72;4970517;28;20625;-65
2022/11/25 08:06:47;;;;;;;22.83;8.47;;;;;;;6.10;88.75;100470.31;4987513;28;20673;-65
2022/11/25 08:09:18;;;;;;;18.67;9.20;;;;;;;6.12;88.35;100459.84;4983545;28;20270;-65
2022/11/25 08:11:45;;;;;;;22.53;9.17;;;;;;;6.13;88.54;100465.16;4985829;28;20664;-65
2022/11/25 08:14:13;;;;;;;16.47;8.73;;;;;;;6.20;87.64;100468.84;4992036;28;20274;-65
2022/11/25 08:16:39;;;;;;;18.37;8.83;;;;;;;6.18;88.12;100471.44;4988732;28;20197;-65
2022/11/25 08:19:10;;;;;;;18.83;8.40;;;;;;;6.23;87.79;100477.75;4986600;28;20223;-65
2022/11/25 08:21:36;;;;;;;15.77;8.23;;;;;;;6.21;88.20;100474.16;4984997;28;20724;-65
2022/11/25 08:24:03;;;;;;;17.97;8.80;;;;;;;6.23;87.69;100467.22;4988575;28;20202;-65
2022/11/25 08:26:33;;;;;;;22.97;8.53;;;;;;;6.31;87.85;100477.97;4989059;28;20895;-65
2022/11/25 08:29:00;;;;;;;18.43;8.03;;;;;;;6.37;87.57;100478.16;4986491;28;20711;-65
2022/11/25 08:31:30;;;;;;;20.73;8.67;;;;;;;6.42;87.58;100480.97;4988102;28;20239;-65
2022/11/25 08:33:57;;;;;;;17.10;8.50;;;;;;;6.44;86.82;100479.28;4974028;28;20197;-65
2022/11/25 08:36:25;;;;;;;18.47;8.10;;;;;;;6.63;85.51;100486.88;4988442;28;21398;-65
2022/11/25 08:38:56;;;;;;;16.67;8.03;;;;;;;6.62;85.71;100486.84;4988368;28;20319;-65
2022/11/25 08:41:31;;;;;;;17.13;8.07;;;;;;;6.68;85.98;100489.66;4988503;28;20220;-65
2022/11/25 08:44:00;;;;;;;18.27;7.23;;;;;;;6.80;84.56;100493.53;4988833;28;20291;-66
2022/11/25 08:46:32;;;;;;;18.47;7.53;;;;;;;6.84;83.91;100477.00;4987663;28;20200;-65
2022/11/25 08:48:59;;;;;;;15.50;7.53;;;;;;;6.81;84.30;100491.81;4988703;28;20257;-66
2022/11/25 08:51:29;;;;;;;17.30;7.70;;;;;;;6.89;84.15;100498.22;4986050;28;20475;-65
2022/11/25 08:53:56;;;;;;;19.07;7.80;;;;;;;6.95;84.79;100495.75;4989538;28;20238;-66
2022/11/25 08:56:24;;;;;;;13.33;7.53;;;;;;;7.08;84.06;100505.78;4985996;28;20292;-66
2022/11/25 08:58:53;;;;;;;14.07;7.23;;;;;;;7.16;82.77;100504.25;4988523;28;20223;-66
2022/11/25 09:01:21;;;;;;;14.97;6.83;;;;;;;7.20;83.04;100513.13;4989036;28;20228;-66
2022/11/25 09:03:50;;;;;;;18.73;8.00;;;;;;;7.27;82.43;100511.59;4989979;28;20215;-66
2022/11/25 09:06:18;;;;;;;17.00;8.30;;;;;;;7.31;83.03;100511.72;4990965;28;20239;-66
2022/11/25 09:08:45;;;;;;;15.63;7.90;;;;;;;7.19;82.48;100516.63;4990466;28;20252;-66
2022/11/25 09:11:14;;;;;;;16.47;8.30;;;;;;;7.18;82.82;100522.72;4989319;28;20661;-66
2022/11/25 09:13:41;;;;;;;16.10;8.00;;;;;;;7.14;83.86;100520.88;4973405;28;20197;-66
2022/11/25 09:16:08;;;;;;;14.13;7.93;;;;;;;7.09;83.89;100526.00;4990201;28;20201;-66
2022/11/25 09:18:36;;;;;;;18.70;8.53;;;;;;;7.03;84.24;100519.66;4989381;28;20222;-66
2022/11/25 09:21:10;;;;;;;18.87;8.63;;;;;;;7.12;84.44;100527.81;4987642;28;20587;-66
2022/11/25 09:23:38;;;;;;;22.07;8.63;;;;;;;7.11;84.63;100532.19;4988419;28;20198;-66
2022/11/25 09:26:06;;;;;;;16.67;8.50;;;;;;;7.13;84.43;100527.88;4990874;28;20348;-66
2022/11/25 09:28:33;;;;;;;15.83;8.43;;;;;;;7.27;84.47;100532.66;4985403;28;20222;-66
2022/11/25 09:31:06;;;;;;;15.93;8.60;;;;;;;7.37;84.67;100530.34;4990144;28;20677;-66
2022/11/25 09:33:32;;;;;;;18.73;8.53;;;;;;;7.41;83.32;100524.28;4989310;28;20198;-66
2022/11/25 09:36:00;;;;;;;16.17;8.63;;;;;;;7.39;83.65;100533.91;4989649;28;20193;-66
2022/11/25 09:38:27;;;;;;;14.07;9.20;;;;;;;7.43;83.86;100532.25;4989579;28;20275;-66
2022/11/25 09:47:56;;;;;;;24.63;12.00;;;;;;;7.55;83.20;100557.19;4985619;28;20248;-66
2022/11/25 09:50:35;;;;;;;26.40;12.50;;;;;;;7.50;83.08;100560.56;4958483;28;20295;-66
2022/11/25 09:53:17;;;;;;;22.00;11.70;;;;;;;7.61;83.15;100558.25;4966000;28;20228;-66
2022/11/25 09:55:47;;;;;;;18.17;9.73;;;;;;;7.77;83.45;100561.31;4989272;28;20705;-66
2022/11/25 09:58:31;;;;;;;18.70;9.40;;;;;;;8.04;82.79;100557.66;4987770;28;20304;-66
2022/11/25 10:00:59;;;;;;;18.20;10.10;;;;;;;7.99;82.29;100553.97;4988152;28;20193;-66
2022/11/25 10:03:52;;;;;;;23.57;9.93;;;;;;;8.23;81.52;100564.28;4989240;28;20554;-66
2022/11/25 10:06:27;;;;;;;20.57;9.40;;;;;;;8.52;79.72;100565.06;4985012;28;20312;-66
2022/11/25 10:09:10;;;;;;;20.63;9.53;;;;;;;8.56;79.53;100565.16;4985460;28;20311;-66
2022/11/25 10:11:45;;;;;;;20.40;9.90;;;;;;;8.72;78.87;100574.31;4987094;28;20267;-66
2022/11/25 10:14:36;;;;;;;20.97;9.30;;;;;;;8.69;79.39;100576.91;4965846;28;20288;-66
2022/11/25 10:17:08;;;;;;;21.83;9.90;;;;;;;9.03;78.13;100571.53;4985000;28;20728;-66
2022/11/25 10:19:59;;;;;;;20.13;10.23;;;;;;;9.10;77.40;100573.47;4982077;28;20292;-66
2022/11/25 10:22:31;;;;;;;22.00;9.90;;;;;;;9.24;78.38;100573.78;4983671;28;20202;-66
2022/11/25 10:25:06;;;;;;;21.73;10.17;;;;;;;9.31;77.56;100570.41;4982233;28;20210;-67
2022/11/25 10:27:54;;;;;;;15.90;8.63;;;;;;;9.40;77.05;100561.78;4986727;28;20279;-66
2022/11/25 10:30:23;;;;;;;17.23;9.17;;;;;;;9.47;75.75;100573.34;4986487;28;20728;-66
2022/11/25 10:33:08;;;;;;;18.10;9.23;;;;;;;9.58;76.37;100562.13;4989061;28;20925;-66
2022/11/25 10:35:42;;;;;;;19.20;9.87;;;;;;;9.94;75.54;100575.19;4987783;28;20290;-66
2022/11/25 10:38:17;;;;;;;17.57;8.77;;;;;;;10.16;74.81;100579.13;5025588;23;20316;-64
2022/11/25 10:40:48;;;;;;;19.53;8.57;;;;;;;10.27;73.21;100585.53;5017120;28;20207;-64
2022/11/25 10:43:14;;;;;;;17.23;8.50;;;;;;;10.20;72.53;100582.72;5017037;28;20713;-64
2022/11/25 10:45:50;;;;;;;18.23;8.87;;;;;;;9.98;72.17;100574.38;5016189;28;20200;-65
2022/11/25 10:48:38;;;;;;;15.90;8.73;;;;;;;9.65;73.85;100576.41;5013760;28;20303;-63
2022/11/25 10:51:28;;;;;;;15.90;9.03;;;;;;;9.47;74.93;100578.66;5025782;28;20264;-64
2022/11/25 10:54:14;;;;;;;17.57;8.53;;;;;;;9.36;75.90;100589.00;5018207;28;20238;-64
2022/11/25 10:56:50;;;;;;;16.43;8.27;;;;;;;9.45;74.62;100585.66;5009923;28;20199;-65
2022/11/25 10:59:31;;;;;;;19.73;8.87;;;;;;;9.57;75.43;100599.13;5010728;28;20763;-65
2022/11/25 11:02:18;;;;;;;15.13;8.77;;;;;;;9.82;72.49;100596.13;5016825;28;20199;-63
2022/11/25 11:05:02;;;;;;;15.73;7.83;;;;;;;9.99;72.60;100602.63;5014457;28;20290;-64
2022/11/25 11:07:32;;;;;;;13.53;7.47;;;;;;;9.91;72.33;100608.63;5020049;28;20764;-63
2022/11/25 11:10:23;;;;;;;17.80;8.70;;;;;;;9.70;72.80;100617.94;5024483;28;20261;-64
2022/11/25 11:12:54;;;;;;;15.47;7.90;;;;;;;9.71;73.68;100609.13;5019024;28;20219;-64
2022/11/25 11:15:26;;;;;;;14.57;7.90;;;;;;;9.62;73.85;100608.06;5020517;28;20253;-65
2022/11/25 11:17:55;;;;;;;15.27;7.80;;;;;;;9.64;74.51;100611.63;5025816;28;20783;-66
2022/11/25 11:20:27;;;;;;;16.30;8.13;;;;;;;9.58;74.12;100609.72;5019647;28;20385;-65
2022/11/25 11:23:00;;;;;;;17.30;8.43;;;;;;;9.40;74.36;100606.72;5021208;28;20202;-64
2022/11/25 11:25:36;;;;;;;17.40;8.33;;;;;;;9.17;75.81;100590.34;5025812;28;20203;-62
2022/11/25 11:28:24;;;;;;;15.67;8.10;;;;;;;9.20;76.20;100600.06;5020059;28;20220;-62
2022/11/25 11:31:02;;;;;;;19.00;9.77;;;;;;;9.04;76.64;100596.22;5023029;28;20616;-65
2022/11/25 11:33:40;;;;;;;15.43;8.57;;;;;;;9.13;76.15;100606.09;5024674;28;20212;-64
2022/11/25 11:36:21;;;;;;;12.83;7.67;;;;;;;9.09;76.91;100613.06;5018239;28;20196;-64
2022/11/25 11:39:12;;;;;;;16.60;8.60;;;;;;;9.10;76.59;100618.38;5019530;28;20245;-65
2022/11/25 11:41:50;;;;;;;14.60;8.90;;;;;;;9.25;76.62;100616.94;5023837;28;20200;-64
2022/11/25 11:44:48;;;;;;;15.93;9.10;;;;;;;9.34;76.18;100627.72;5019353;28;20760;-64
2022/11/25 11:47:28;;;;;;;22.33;10.23;;;;;;;9.28;76.42;100614.38;5017572;28;20574;-65
2022/11/25 11:50:15;;;;;;;25.27;13.70;;;;;;;9.29;76.18;100621.44;5020955;28;20298;-64
2022/11/25 11:52:57;;;;;;;21.77;12.53;;;;;;;9.28;77.01;100622.31;5021613;28;20287;-63
2022/11/25 11:55:46;;;;;;;20.70;12.40;;;;;;;9.32;77.49;100638.25;5025183;28;20220;-64